Time;durP1;ratioP1;P1;durP2;ratioP2;P2;SDS_P1;SDS_P2;PMS_P1;PMS_P2;Temp;Humidity;BMP_temperature;BMP_pressure;BME280_temperature;BME280_humidity;BME280_pressure;Samples;Min_cycle;Max_cycle;Signal;HPM_P1;HPM_P2
2022/08/17 00:01:00;;;;;;;4.53;3.63;;;19.20;99.90;;;;;;4324269;28;10000037;-77
2022/08/17 00:03:32;;;;;;;3.80;3.40;;;19.20;99.90;;;;;;5015559;28;20030;-77
2022/08/17 00:06:11;;;;;;;3.80;3.40;;;19.10;99.90;;;;;;5009904;28;20348;-77
2022/08/17 00:08:53;;;;;;;4.07;3.58;;;19.10;99.90;;;;;;5012626;28;20100;-77
2022/08/17 00:11:33;;;;;;;4.03;3.50;;;19.10;99.90;;;;;;5008152;28;20027;-76
2022/08/17 00:14:03;;;;;;;3.65;3.35;;;19.10;99.90;;;;;;5023430;28;20075;-76
2022/08/17 00:16:35;;;;;;;3.97;3.58;;;19.10;99.90;;;;;;5012400;28;20037;-77
2022/08/17 00:19:04;;;;;;;6.25;3.85;;;19.10;99.90;;;;;;5019419;28;20026;-76
2022/08/17 00:21:31;;;;;;;5.78;3.90;;;19.10;99.90;;;;;;5017756;28;20520;-76
2022/08/17 00:23:57;;;;;;;6.47;4.15;;;19.00;99.90;;;;;;5018239;28;20029;-76
2022/08/17 00:26:24;;;;;;;4.45;3.83;;;19.00;99.90;;;;;;5013376;28;20112;-77
2022/08/17 00:28:50;;;;;;;4.20;3.55;;;18.90;99.90;;;;;;5018955;28;20386;-77
2022/08/17 00:31:16;;;;;;;3.90;3.60;;;19.00;99.90;;;;;;5010041;28;20029;-77
2022/08/17 00:33:44;;;;;;;5.13;3.63;;;19.00;99.90;;;;;;5017307;28;20022;-77
2022/08/17 00:36:10;;;;;;;4.30;3.83;;;18.90;99.90;;;;;;5018511;28;20104;-77
2022/08/17 00:38:36;;;;;;;3.78;3.47;;;18.90;99.90;;;;;;5019151;28;20018;-77
2022/08/17 00:41:06;;;;;;;4.38;3.70;;;18.80;99.90;;;;;;5013972;28;20256;-77
2022/08/17 00:43:31;;;;;;;5.10;3.97;;;18.80;99.90;;;;;;5017045;28;20034;-76
2022/08/17 00:45:59;;;;;;;4.95;4.50;;;18.80;99.90;;;;;;5018228;28;20432;-77
2022/08/17 00:48:25;;;;;;;4.85;3.72;;;18.80;99.90;;;;;;5012799;28;20115;-77
2022/08/17 00:51:05;;;;;;;4.95;4.45;;;18.80;99.90;;;;;;5016588;28;20068;-76
2022/08/17 00:53:33;;;;;;;4.55;4.15;;;18.70;99.90;;;;;;5016542;28;20026;-76
2022/08/17 00:56:03;;;;;;;5.47;4.47;;;18.60;99.90;;;;;;5020561;28;20049;-77
2022/08/17 00:58:30;;;;;;;5.03;4.57;;;18.60;99.90;;;;;;5015893;28;20041;-76
2022/08/17 01:00:55;;;;;;;7.03;5.00;;;18.70;99.90;;;;;;5017269;28;20045;-77
2022/08/17 01:03:24;;;;;;;6.72;4.47;;;18.80;99.90;;;;;;5020846;28;20025;-77
2022/08/17 01:05:55;;;;;;;8.23;4.90;;;18.80;99.90;;;;;;5013286;28;20421;-76
2022/08/17 01:08:24;;;;;;;9.73;4.53;;;18.90;99.90;;;;;;5019591;28;20041;-76
2022/08/17 01:10:54;;;;;;;4.95;4.45;;;18.90;99.90;;;;;;5016479;28;20166;-77
2022/08/17 01:13:21;;;;;;;7.97;4.50;;;19.00;99.90;;;;;;5017158;28;20044;-77
2022/08/17 01:15:57;;;;;;;7.53;4.53;;;19.00;99.90;;;;;;5018323;28;20025;-76
2022/08/17 01:18:24;;;;;;;6.70;5.00;;;19.00;99.90;;;;;;5017607;28;20104;-76
2022/08/17 01:20:52;;;;;;;5.10;4.50;;;19.00;99.90;;;;;;5013679;28;20026;-77
2022/08/17 01:23:22;;;;;;;7.70;4.93;;;19.00;99.90;;;;;;5016658;28;20033;-76
2022/08/17 01:25:53;;;;;;;5.97;4.60;;;19.00;99.90;;;;;;5023727;28;20029;-76
2022/08/17 01:28:20;;;;;;;7.63;4.72;;;18.80;99.90;;;;;;5020870;28;20112;-76
2022/08/17 01:30:47;;;;;;;8.95;4.93;;;18.70;99.90;;;;;;5016364;28;20030;-77
2022/08/17 01:33:13;;;;;;;7.15;4.93;;;18.70;99.90;;;;;;5018722;28;20088;-76
2022/08/17 01:35:39;;;;;;;4.80;4.40;;;18.70;99.90;;;;;;5007960;28;20041;-76
2022/08/17 01:38:05;;;;;;;4.80;4.18;;;18.70;99.90;;;;;;5013879;28;20112;-76
2022/08/17 01:40:38;;;;;;;4.40;4.00;;;18.60;99.90;;;;;;5015696;28;20396;-76
2022/08/17 01:43:13;;;;;;;4.28;3.88;;;18.60;99.90;;;;;;5016370;28;20072;-76
2022/08/17 01:45:43;;;;;;;5.55;4.80;;;18.60;99.90;;;;;;5013686;28;20034;-76
2022/08/17 01:48:09;;;;;;;4.97;4.10;;;18.50;99.90;;;;;;5016882;28;20026;-76
2022/08/17 01:50:39;;;;;;;4.38;3.97;;;18.40;99.90;;;;;;5032586;28;20510;-76
2022/08/17 01:53:10;;;;;;;4.53;4.00;;;18.40;99.90;;;;;;5017220;28;20033;-76
2022/08/17 01:55:44;;;;;;;5.53;4.30;;;18.30;99.90;;;;;;5014427;28;20152;-76
2022/08/17 01:58:10;;;;;;;4.60;4.20;;;18.20;99.90;;;;;;5015737;28;20037;-76
2022/08/17 02:00:39;;;;;;;5.00;3.90;;;18.20;99.90;;;;;;5016415;28;20405;-76
2022/08/17 02:03:05;;;;;;;5.20;4.70;;;18.20;99.90;;;;;;5018739;28;20029;-76
2022/08/17 02:05:31;;;;;;;10.32;5.40;;;18.10;99.90;;;;;;5018329;28;20034;-76
2022/08/17 02:07:58;;;;;;;6.28;4.90;;;18.20;99.90;;;;;;5015482;28;20029;-76
2022/08/17 02:10:25;;;;;;;6.90;4.75;;;18.20;99.90;;;;;;5017748;28;20104;-76
2022/08/17 02:12:51;;;;;;;6.70;4.88;;;18.20;99.90;;;;;;5011598;28;20639;-76
2022/08/17 02:15:17;;;;;;;5.10;4.60;;;18.10;99.90;;;;;;5018302;28;20167;-77
2022/08/17 02:17:43;;;;;;;4.45;4.05;;;18.00;99.90;;;;;;5021768;28;20376;-77
2022/08/17 02:20:09;;;;;;;5.45;4.78;;;17.90;99.90;;;;;;5017073;28;20322;-77
2022/08/17 02:22:39;;;;;;;4.93;4.43;;;17.90;99.90;;;;;;5018876;28;20072;-77
2022/08/17 02:25:08;;;;;;;6.90;5.35;;;17.90;99.90;;;;;;5020161;28;20040;-77
2022/08/17 02:27:37;;;;;;;6.10;5.50;;;17.90;99.90;;;;;;5019890;28;20029;-77
2022/08/17 02:30:07;;;;;;;11.18;6.28;;;17.80;99.90;;;;;;5017459;28;20035;-76
2022/08/17 02:32:33;;;;;;;7.88;5.80;;;17.70;99.90;;;;;;5015180;28;20095;-77
2022/08/17 02:35:00;;;;;;;6.82;6.10;;;17.40;99.90;;;;;;5019145;28;20556;-76
2022/08/17 02:37:28;;;;;;;7.88;5.63;;;17.20;99.90;;;;;;5019818;28;20029;-76
2022/08/17 02:39:55;;;;;;;8.27;6.38;;;17.20;99.90;;;;;;5018646;28;20021;-75
2022/08/17 02:42:30;;;;;;;6.97;5.57;;;17.40;99.90;;;;;;5010078;28;20030;-76
2022/08/17 02:44:56;;;;;;;6.28;5.68;;;17.40;99.90;;;;;;5016437;28;20029;-76
2022/08/17 02:47:21;;;;;;;6.22;5.10;;;17.50;99.90;;;;;;5013413;28;20025;-76
2022/08/17 02:49:47;;;;;;;7.43;5.45;;;17.50;99.90;;;;;;5015146;28;20026;-76
2022/08/17 02:52:13;;;;;;;6.15;5.28;;;17.50;99.90;;;;;;5012115;28;20120;-76
2022/08/17 02:54:38;;;;;;;9.38;5.50;;;17.50;99.90;;;;;;5013747;28;20038;-76
2022/08/17 02:57:04;;;;;;;5.57;5.05;;;17.50;99.90;;;;;;5020948;28;20032;-76
2022/08/17 02:59:29;;;;;;;6.60;5.25;;;17.40;99.90;;;;;;5022290;28;20368;-76
2022/08/17 03:01:55;;;;;;;5.53;4.85;;;17.40;99.90;;;;;;5015421;28;20029;-76
2022/08/17 03:04:21;;;;;;;6.72;5.35;;;17.40;99.90;;;;;;5013170;28;20497;-76
2022/08/17 03:06:47;;;;;;;5.47;4.93;;;17.40;99.90;;;;;;5024052;28;20122;-76
2022/08/17 03:09:14;;;;;;;7.40;5.25;;;17.30;99.90;;;;;;5021801;28;20036;-75
2022/08/17 03:11:41;;;;;;;9.88;5.65;;;17.30;99.90;;;;;;5023052;28;20425;-76
2022/08/17 03:14:07;;;;;;;6.60;5.38;;;17.30;99.90;;;;;;5021937;28;20347;-76
2022/08/17 03:16:32;;;;;;;6.35;5.53;;;17.30;99.90;;;;;;5019712;28;20320;-76
2022/08/17 03:18:58;;;;;;;5.68;5.03;;;17.20;99.90;;;;;;5018748;28;20053;-76
2022/08/17 03:21:23;;;;;;;5.70;5.10;;;17.10;99.90;;;;;;5020449;28;20017;-76
2022/08/17 03:23:49;;;;;;;7.57;6.60;;;17.10;99.90;;;;;;5020895;28;20552;-76
2022/08/17 03:26:14;;;;;;;11.05;5.88;;;17.10;99.90;;;;;;5019087;28;20025;-76
2022/08/17 03:28:40;;;;;;;6.97;6.28;;;17.10;99.90;;;;;;5020342;28;20421;-76
2022/08/17 03:31:06;;;;;;;7.32;6.30;;;17.10;99.90;;;;;;5021904;28;20027;-76
2022/08/17 03:33:32;;;;;;;9.43;6.28;;;17.10;99.90;;;;;;5012900;28;20018;-76
2022/08/17 03:35:58;;;;;;;10.95;6.18;;;17.10;99.90;;;;;;5013412;28;20113;-75
2022/08/17 03:38:25;;;;;;;8.63;6.20;;;17.10;99.90;;;;;;5023666;28;20096;-76
2022/08/17 03:40:51;;;;;;;8.23;6.00;;;17.10;99.90;;;;;;5018350;28;20457;-76
2022/08/17 03:43:18;;;;;;;7.00;5.50;;;17.10;99.90;;;;;;5007382;28;20080;-76
2022/08/17 03:57:06;;;;;;;7.13;4.97;;;17.00;99.90;;;;;;5021273;28;20041;-77
2022/08/17 03:59:32;;;;;;;7.45;5.18;;;17.00;99.90;;;;;;5012856;28;20034;-80
2022/08/17 04:02:06;;;;;;;5.60;4.90;;;17.00;99.90;;;;;;5021003;28;20028;-73
2022/08/17 04:04:32;;;;;;;5.78;5.20;;;17.00;99.90;;;;;;5009688;28;20085;-73
2022/08/17 04:06:57;;;;;;;6.57;5.28;;;17.10;99.90;;;;;;5015116;28;20056;-73
2022/08/17 04:09:23;;;;;;;5.28;4.80;;;17.10;99.90;;;;;;5027499;28;20473;-73
2022/08/17 04:11:49;;;;;;;6.38;5.65;;;17.10;99.90;;;;;;5021635;28;20022;-74
2022/08/17 04:14:14;;;;;;;8.82;5.88;;;17.10;99.90;;;;;;5012272;28;20456;-73
2022/08/17 04:16:40;;;;;;;7.88;6.10;;;17.10;99.90;;;;;;5027624;28;20033;-73
2022/08/17 04:19:06;;;;;;;8.20;5.60;;;17.10;99.90;;;;;;5027641;28;20076;-74
2022/08/17 04:21:31;;;;;;;6.38;5.78;;;17.10;99.90;;;;;;5039984;28;20109;-73
2022/08/17 04:23:57;;;;;;;8.50;6.20;;;17.00;99.90;;;;;;5011087;28;20097;-74
2022/08/17 04:26:23;;;;;;;9.02;5.82;;;17.00;99.90;;;;;;5026174;28;20034;-74
2022/08/17 04:28:50;;;;;;;7.20;5.80;;;17.00;99.90;;;;;;5010278;28;20342;-73
2022/08/17 04:31:16;;;;;;;8.32;7.00;;;17.00;99.90;;;;;;5022894;28;20532;-74
2022/08/17 04:33:44;;;;;;;10.85;7.15;;;16.90;99.90;;;;;;5024400;28;20112;-73
2022/08/17 04:36:13;;;;;;;10.02;6.47;;;16.90;99.90;;;;;;5026932;28;20033;-73
2022/08/17 04:38:41;;;;;;;9.15;7.30;;;16.90;99.90;;;;;;5027116;28;20256;-73
2022/08/17 04:43:57;;;;;;;8.27;6.50;;;16.90;99.90;;;;;;5024865;28;20067;-73
2022/08/17 04:46:30;;;;;;;8.63;7.32;;;16.90;99.90;;;;;;5011696;28;20351;-73
2022/08/17 04:48:56;;;;;;;8.05;7.25;;;16.90;99.90;;;;;;5007571;28;20084;-72
2022/08/17 04:51:26;;;;;;;12.45;7.43;;;16.90;99.90;;;;;;5018681;28;20441;-73
2022/08/17 04:53:55;;;;;;;7.72;6.88;;;16.90;99.90;;;;;;5025925;28;20041;-73
2022/08/17 04:56:22;;;;;;;8.30;7.38;;;16.90;99.90;;;;;;5010035;28;20030;-73
2022/08/17 04:58:50;;;;;;;8.00;6.78;;;17.10;99.90;;;;;;5015949;28;20177;-73
2022/08/17 05:01:19;;;;;;;7.72;6.93;;;17.20;99.90;;;;;;5007072;28;20022;-73
2022/08/17 05:03:44;;;;;;;9.57;6.90;;;17.30;99.90;;;;;;5003509;28;20057;-73
2022/08/17 05:06:10;;;;;;;9.57;6.57;;;17.40;99.90;;;;;;5007297;28;20058;-73
2022/08/17 05:08:36;;;;;;;11.30;6.47;;;17.50;99.90;;;;;;5012165;28;20491;-73
2022/08/17 05:11:01;;;;;;;8.38;6.60;;;17.60;99.90;;;;;;5024101;28;20029;-73
2022/08/17 05:13:31;;;;;;;9.48;7.00;;;17.60;99.90;;;;;;5012299;28;20382;-73
2022/08/17 05:15:59;;;;;;;7.50;6.32;;;17.70;99.90;;;;;;5006854;28;20029;-73
2022/08/17 05:18:26;;;;;;;7.80;6.55;;;17.70;99.90;;;;;;5024542;28;20476;-73
2022/08/17 05:20:53;;;;;;;6.57;5.97;;;17.70;99.90;;;;;;5019110;28;20243;-73
2022/08/17 05:23:20;;;;;;;10.30;6.30;;;17.80;99.90;;;;;;5006924;28;20060;-74
2022/08/17 05:25:49;;;;;;;8.25;6.70;;;17.80;99.90;;;;;;5007057;28;20036;-74
2022/08/17 05:28:16;;;;;;;7.78;6.47;;;18.00;99.90;;;;;;5014775;28;20453;-73
2022/08/17 05:30:43;;;;;;;8.20;6.13;;;18.10;99.90;;;;;;5006246;28;20034;-74
2022/08/17 05:33:24;;;;;;;7.25;5.90;;;18.10;99.90;;;;;;5006656;28;20602;-74
2022/08/17 05:35:52;;;;;;;9.35;6.60;;;18.10;99.90;;;;;;5007079;28;20401;-73
2022/08/17 05:38:20;;;;;;;7.63;6.90;;;18.10;99.90;;;;;;5018674;28;20326;-73
2022/08/17 05:40:46;;;;;;;7.97;6.95;;;18.10;99.90;;;;;;5006485;28;20040;-74
2022/08/17 05:43:27;;;;;;;9.70;7.38;;;18.10;99.90;;;;;;5006234;28;20038;-74
2022/08/17 05:46:16;;;;;;;9.38;6.97;;;18.10;99.90;;;;;;5019974;28;20314;-74
2022/08/17 05:48:45;;;;;;;7.20;6.50;;;18.10;99.90;;;;;;5008643;28;20121;-74
2022/08/17 05:51:28;;;;;;;7.63;6.72;;;18.10;99.90;;;;;;5005188;28;20422;-73
2022/08/17 05:54:11;;;;;;;7.63;6.75;;;18.10;99.90;;;;;;5016207;28;20036;-73
2022/08/17 05:57:02;;;;;;;8.23;6.45;;;18.00;99.90;;;;;;5014208;28;20034;-73
2022/08/17 05:59:43;;;;;;;8.38;6.75;;;18.10;99.90;;;;;;5017899;28;20037;-73
2022/08/17 06:02:21;;;;;;;9.02;6.65;;;18.10;99.90;;;;;;5018283;28;20716;-73
2022/08/17 06:05:16;;;;;;;13.18;7.07;;;18.20;99.90;;;;;;5024487;28;20048;-73
2022/08/17 06:07:58;;;;;;;8.50;6.20;;;18.40;99.90;;;;;;4997262;28;20049;-73
2022/08/17 06:10:42;;;;;;;9.98;6.82;;;18.50;99.90;;;;;;5006962;28;20505;-73
2022/08/17 06:13:34;;;;;;;7.30;6.30;;;18.60;99.90;;;;;;5008078;28;20068;-73
2022/08/17 06:16:34;;;;;;;8.75;6.30;;;18.60;99.90;;;;;;5016033;28;20595;-73
2022/08/17 06:19:14;;;;;;;8.80;6.50;;;18.60;99.90;;;;;;5018254;28;20049;-73
2022/08/17 06:21:42;;;;;;;7.03;6.32;;;18.70;99.90;;;;;;5023214;28;20234;-74
2022/08/17 06:24:17;;;;;;;9.95;7.38;;;18.70;99.90;;;;;;5007047;28;20160;-73
2022/08/17 06:26:44;;;;;;;12.10;7.30;;;18.80;99.90;;;;;;5006616;28;20377;-73
2022/08/17 06:29:35;;;;;;;9.90;8.07;;;18.90;99.90;;;;;;5019374;28;20506;-73
2022/08/17 06:32:03;;;;;;;9.07;7.00;;;19.00;99.90;;;;;;5007931;28;20022;-73
2022/08/17 06:34:30;;;;;;;7.07;6.43;;;19.10;99.90;;;;;;5022764;28;20021;-74
2022/08/17 06:37:04;;;;;;;8.07;6.03;;;19.20;99.90;;;;;;5009616;28;20293;-74
2022/08/17 06:39:43;;;;;;;7.07;6.38;;;19.20;99.90;;;;;;5019994;28;20168;-74
2022/08/17 06:42:28;;;;;;;7.47;6.78;;;19.30;99.90;;;;;;5016786;28;20055;-74
2022/08/17 06:45:06;;;;;;;8.40;6.45;;;19.30;99.90;;;;;;5023931;28;20110;-74
2022/08/17 06:47:50;;;;;;;9.68;7.38;;;19.40;99.90;;;;;;5011561;28;20107;-74
2022/08/17 06:50:27;;;;;;;12.55;8.07;;;19.50;99.90;;;;;;5028105;28;20144;-73
2022/08/17 06:52:58;;;;;;;10.32;8.15;;;19.70;99.90;;;;;;5026951;28;20026;-73
2022/08/17 06:55:59;;;;;;;8.55;6.78;;;19.90;99.90;;;;;;5026445;28;20087;-73
2022/08/17 06:58:30;;;;;;;7.70;6.15;;;20.20;99.90;;;;;;5009540;28;20421;-74
2022/08/17 07:00:59;;;;;;;9.35;5.93;;;20.50;99.90;;;;;;5008395;28;20022;-74
2022/08/17 07:03:30;;;;;;;6.93;6.22;;;20.60;99.90;;;;;;5010080;28;21047;-74
2022/08/17 07:06:01;;;;;;;7.38;5.80;;;20.70;99.90;;;;;;5009412;28;20204;-74
2022/08/17 07:08:42;;;;;;;7.78;6.20;;;20.90;99.90;;;;;;5013074;28;20056;-73
2022/08/17 07:11:15;;;;;;;6.60;5.90;;;21.10;99.90;;;;;;5026822;28;20033;-73
2022/08/17 07:14:06;;;;;;;7.95;5.57;;;21.40;99.90;;;;;;5027263;28;20037;-73
2022/08/17 07:16:45;;;;;;;6.95;5.78;;;21.50;99.90;;;;;;5009087;28;20040;-73
2022/08/17 07:19:16;;;;;;;9.00;6.00;;;21.50;99.90;;;;;;5012086;28;20029;-73
2022/08/17 07:21:59;;;;;;;6.05;5.30;;;21.60;99.90;;;;;;5012499;28;20026;-73
2022/08/17 07:24:43;;;;;;;7.07;5.25;;;21.60;99.90;;;;;;5017352;28;20040;-73
2022/08/17 07:27:11;;;;;;;;;;;21.70;99.90;;;;;;5026634;28;20029;-73
2022/08/17 07:29:45;;;;;;;6.25;4.68;;;22.00;99.90;;;;;;5018617;28;19956;-73
2022/08/17 07:32:17;;;;;;;5.43;4.75;;;22.40;99.90;;;;;;5007360;28;20034;-73
2022/08/17 07:35:27;;;;;;;7.03;4.22;;;22.80;99.90;;;;;;5008942;28;20044;-73
2022/08/17 07:38:18;;;;;;;5.25;4.15;;;23.60;99.90;;;;;;4920762;29;20058;-74
2022/08/17 07:41:03;;;;;;;7.07;4.43;;;23.70;99.90;;;;;;5017037;28;20030;-73
2022/08/17 07:43:40;;;;;;;6.88;4.07;;;24.10;99.90;;;;;;5007994;28;20030;-73
2022/08/17 07:49:06;;;;;;;3.97;3.63;;;24.60;99.90;;;;;;5012950;28;20131;-74
2022/08/17 07:51:42;;;;;;;7.32;3.88;;;24.70;99.90;;;;;;5021145;28;20481;-73
2022/08/17 07:54:14;;;;;;;4.13;3.70;;;24.80;99.90;;;;;;5015147;28;20076;-73
2022/08/17 07:56:48;;;;;;;3.88;3.33;;;24.80;99.90;;;;;;5008017;28;20040;-73
2022/08/17 07:59:16;;;;;;;4.93;3.80;;;24.70;99.80;;;;;;5007849;28;20049;-74
2022/08/17 08:02:08;;;;;;;7.90;4.10;;;24.80;99.90;;;;;;5008780;28;20057;-74
2022/08/17 08:04:41;;;;;;;5.57;3.80;;;24.80;99.90;;;;;;5008410;28;20041;-73
2022/08/17 08:07:25;;;;;;;7.07;3.60;;;25.00;99.70;;;;;;5023525;28;20104;-74
2022/08/17 08:09:59;;;;;;;8.68;3.80;;;25.10;99.20;;;;;;5026492;28;20436;-73
2022/08/17 08:12:28;;;;;;;6.07;3.60;;;25.20;98.60;;;;;;5010791;28;20402;-74
2022/08/17 08:15:00;;;;;;;4.13;3.70;;;25.30;98.60;;;;;;5019158;28;20021;-74
2022/08/17 08:17:30;;;;;;;6.68;3.80;;;25.40;98.50;;;;;;5016007;28;20402;-74
2022/08/17 08:19:59;;;;;;;3.92;3.53;;;25.30;98.30;;;;;;5011866;28;20493;-73
2022/08/17 08:22:35;;;;;;;5.68;3.45;;;25.40;97.90;;;;;;5019997;28;20124;-73
2022/08/17 08:25:16;;;;;;;5.35;3.58;;;25.40;97.40;;;;;;5008730;28;20033;-74
2022/08/17 08:28:23;;;;;;;6.45;3.95;;;25.50;98.00;;;;;;5022493;28;20029;-73
2022/08/17 08:30:55;;;;;;;6.75;3.65;;;25.50;97.60;;;;;;5007503;28;20075;-72
2022/08/17 08:33:39;;;;;;;8.07;3.63;;;25.50;97.40;;;;;;5018379;28;20476;-73
2022/08/17 08:36:38;;;;;;;5.72;3.55;;;25.70;97.20;;;;;;5014900;28;20029;-73
2022/08/17 08:39:46;;;;;;;6.47;3.55;;;25.90;97.30;;;;;;4999173;28;20040;-73
2022/08/17 08:42:36;;;;;;;3.70;3.40;;;26.20;96.20;;;;;;5005275;28;20505;-74
2022/08/17 08:45:17;;;;;;;7.57;3.50;;;26.40;95.00;;;;;;5014458;28;20099;-73
2022/08/17 08:47:54;;;;;;;7.72;3.70;;;26.50;94.30;;;;;;5007758;28;20077;-73
2022/08/17 08:50:36;;;;;;;5.22;3.10;;;26.60;94.40;;;;;;5007523;28;20038;-73
2022/08/17 08:53:17;;;;;;;5.88;3.83;;;26.90;93.50;;;;;;5018000;28;20025;-73
2022/08/17 08:55:48;;;;;;;5.32;3.22;;;27.20;93.50;;;;;;5007233;28;20410;-71
2022/08/17 08:58:35;;;;;;;4.68;3.13;;;27.40;92.70;;;;;;5008547;28;20046;-72
2022/08/17 09:01:08;;;;;;;8.85;3.33;;;27.60;92.20;;;;;;5009981;28;20080;-71
2022/08/17 09:03:52;;;;;;;5.72;3.10;;;27.90;91.20;;;;;;5004446;28;20121;-71
2022/08/17 09:06:47;;;;;;;10.10;3.15;;;27.90;90.80;;;;;;5017781;28;20553;-71
2022/08/17 09:09:34;;;;;;;5.75;3.45;;;27.80;91.00;;;;;;5012700;28;20037;-71
2022/08/17 09:12:03;;;;;;;5.22;3.10;;;27.90;91.70;;;;;;5012554;28;20033;-72
2022/08/17 09:14:49;;;;;;;3.53;3.22;;;27.90;91.50;;;;;;5017572;28;20041;-70
2022/08/17 09:17:30;;;;;;;3.10;2.85;;;28.00;90.30;;;;;;5015570;28;20052;-71
2022/08/17 09:20:02;;;;;;;7.70;3.10;;;28.30;90.70;;;;;;5009934;28;20030;-71
2022/08/17 09:22:46;;;;;;;6.10;3.40;;;28.60;88.90;;;;;;5015222;28;20068;-70
2022/08/17 09:25:26;;;;;;;5.03;3.05;;;28.80;86.20;;;;;;5022106;28;20041;-71
2022/08/17 09:28:05;;;;;;;3.40;3.10;;;29.00;84.60;;;;;;4321500;28;10000850;-71
2022/08/17 09:30:39;;;;;;;6.07;2.92;;;29.10;84.50;;;;;;5012215;28;20125;-71
2022/08/17 09:33:24;;;;;;;5.05;2.72;;;29.20;82.20;;;;;;5010053;28;20420;-71
2022/08/17 09:35:59;;;;;;;4.20;2.80;;;29.20;80.60;;;;;;5014128;28;20046;-71
2022/08/17 09:38:47;;;;;;;4.65;2.92;;;29.10;79.90;;;;;;5014239;28;20021;-72
2022/08/17 09:41:19;;;;;;;2.92;2.65;;;29.20;80.90;;;;;;5014526;28;20524;-71
2022/08/17 09:44:17;;;;;;;7.47;2.80;;;29.30;79.30;;;;;;5009728;28;20033;-71
2022/08/17 09:47:06;;;;;;;5.15;2.90;;;29.30;78.80;;;;;;5014784;28;20087;-72
2022/08/17 09:49:41;;;;;;;4.25;2.70;;;29.30;78.90;;;;;;5013718;28;20018;-71
2022/08/17 09:52:22;;;;;;;3.03;2.78;;;29.50;78.20;;;;;;5009240;28;20014;-71
2022/08/17 09:54:50;;;;;;;3.53;2.75;;;29.70;77.50;;;;;;5014889;28;20714;-71
2022/08/17 09:57:22;;;;;;;5.50;2.88;;;30.00;76.00;;;;;;5015406;28;20424;-71
2022/08/17 10:00:15;;;;;;;3.13;2.80;;;30.20;71.20;;;;;;5016640;28;20037;-71
2022/08/17 10:03:03;;;;;;;7.85;2.70;;;30.20;71.10;;;;;;5005856;28;20034;-70
2022/08/17 10:05:38;;;;;;;5.82;2.38;;;30.20;72.40;;;;;;5013087;28;20046;-71
2022/08/17 10:08:18;;;;;;;4.68;2.53;;;30.20;71.50;;;;;;5013639;28;20176;-71
2022/08/17 10:11:14;;;;;;;3.90;2.50;;;30.20;72.00;;;;;;5008081;28;20324;-71
2022/08/17 10:13:47;;;;;;;4.93;2.50;;;30.30;71.90;;;;;;5012651;28;20025;-71
2022/08/17 10:16:36;;;;;;;5.28;2.50;;;30.30;70.80;;;;;;5007422;28;20034;-71
2022/08/17 10:19:06;;;;;;;6.75;2.45;;;30.30;69.50;;;;;;5015083;28;20044;-71
2022/08/17 10:27:57;;;;;;;3.97;2.90;;;30.30;69.40;;;;;;4975110;28;20034;-71
2022/08/17 10:30:26;;;;;;;4.40;3.13;;;30.30;69.40;;;;;;4965230;28;20104;-71
2022/08/17 10:32:59;;;;;;;5.90;3.85;;;30.20;69.20;;;;;;5013252;28;20037;-71
2022/08/17 10:35:33;;;;;;;7.10;4.07;;;30.10;69.90;;;;;;5010688;28;20144;-71
2022/08/17 10:38:37;;;;;;;6.80;3.15;;;30.10;69.70;;;;;;5018135;28;20035;-71
2022/08/17 10:41:10;;;;;;;8.80;3.28;;;29.90;69.20;;;;;;4997277;28;20366;-71
2022/08/17 10:43:46;;;;;;;5.05;4.40;;;29.80;69.00;;;;;;5015127;28;20967;-71
2022/08/17 10:46:28;;;;;;;12.38;5.15;;;29.70;68.00;;;;;;5017369;28;20115;-71
2022/08/17 10:49:12;;;;;;;7.57;5.72;;;29.60;68.30;;;;;;5021697;28;20271;-71
2022/08/17 10:51:40;;;;;;;2.78;2.45;;;29.50;67.80;;;;;;5017350;28;20025;-71
2022/08/17 10:54:39;;;;;;;5.60;2.67;;;29.40;67.90;;;;;;5013031;28;20069;-71
2022/08/17 10:57:33;;;;;;;7.75;2.47;;;29.30;66.00;;;;;;5012878;28;20025;-71
2022/08/17 11:00:09;;;;;;;9.35;3.00;;;29.20;67.30;;;;;;5016139;28;20033;-71
2022/08/17 11:02:48;;;;;;;7.10;3.20;;;29.20;67.40;;;;;;5006397;28;20105;-70
2022/08/17 11:05:47;;;;;;;6.90;2.75;;;29.30;68.40;;;;;;5007353;28;20033;-70
2022/08/17 11:08:35;;;;;;;4.63;2.50;;;29.50;67.90;;;;;;5019056;28;20048;-70
2022/08/17 11:11:33;;;;;;;4.18;2.40;;;29.60;68.70;;;;;;5010361;28;20112;-71
2022/08/17 11:14:30;;;;;;;3.30;2.47;;;29.70;68.70;;;;;;5015872;28;20500;-71
2022/08/17 11:17:08;;;;;;;3.30;2.47;;;29.90;68.40;;;;;;4990149;28;20045;-71
2022/08/17 11:19:55;;;;;;;6.60;2.42;;;29.90;66.80;;;;;;5017117;28;20091;-71
2022/08/17 11:22:45;;;;;;;7.50;2.60;;;29.90;67.40;;;;;;5020320;28;20025;-70
2022/08/17 11:25:17;;;;;;;5.45;2.75;;;29.90;68.10;;;;;;5019976;28;20033;-71
2022/08/17 11:27:52;;;;;;;3.10;2.80;;;29.80;67.80;;;;;;5006807;28;20067;-70
2022/08/17 11:30:39;;;;;;;4.32;2.83;;;29.70;67.50;;;;;;5016321;28;20030;-70
2022/08/17 11:33:33;;;;;;;4.65;2.72;;;29.60;67.20;;;;;;5009334;28;20499;-70
2022/08/17 11:36:10;;;;;;;5.65;2.80;;;29.50;67.10;;;;;;5011664;28;20292;-71
2022/08/17 11:38:51;;;;;;;4.68;2.72;;;29.50;68.40;;;;;;5016940;28;20128;-72
2022/08/17 11:41:40;;;;;;;10.65;2.78;;;29.50;69.50;;;;;;5013619;28;20493;-70
2022/08/17 11:44:40;;;;;;;8.52;2.45;;;29.50;67.30;;;;;;5013167;28;20191;-70
2022/08/17 11:52:54;;;;;;;3.20;2.30;;;29.30;66.30;;;;;;5010741;28;20767;-71
2022/08/17 11:55:31;;;;;;;6.85;2.63;;;29.10;64.90;;;;;;5013934;28;20034;-70
2022/08/17 11:58:00;;;;;;;3.00;2.42;;;29.00;65.10;;;;;;5011003;28;20041;-71
2022/08/17 12:00:44;;;;;;;3.85;2.50;;;28.80;66.00;;;;;;5016040;28;20418;-71
2022/08/17 12:03:30;;;;;;;4.75;2.30;;;28.60;66.80;;;;;;5020394;28;20025;-71
2022/08/17 12:06:05;;;;;;;5.90;2.42;;;28.40;67.00;;;;;;5012904;28;20110;-72
2022/08/17 12:08:33;;;;;;;5.40;2.65;;;28.30;68.10;;;;;;5014484;28;20508;-70
2022/08/17 12:10:58;;;;;;;4.10;2.40;;;28.20;69.00;;;;;;5015819;28;20440;-70
2022/08/17 12:13:26;;;;;;;6.07;2.47;;;28.00;68.60;;;;;;5015935;28;20052;-70
2022/08/17 12:15:53;;;;;;;9.00;2.83;;;28.00;69.50;;;;;;5017837;28;20056;-71
2022/08/17 12:18:23;;;;;;;4.90;2.50;;;27.90;70.10;;;;;;5011640;28;20479;-71
2022/08/17 12:21:14;;;;;;;9.63;2.67;;;27.80;71.80;;;;;;5012339;28;20029;-71
2022/08/17 12:23:46;;;;;;;5.93;2.45;;;27.70;72.40;;;;;;5014158;28;20088;-71
2022/08/17 12:26:25;;;;;;;5.10;2.67;;;27.70;72.30;;;;;;5008632;28;20589;-71
2022/08/17 12:29:15;;;;;;;5.22;2.40;;;27.60;71.70;;;;;;5018729;28;20421;-71
2022/08/17 12:31:47;;;;;;;3.53;2.35;;;27.60;72.10;;;;;;5011940;28;20075;-70
2022/08/17 12:34:43;;;;;;;5.00;2.75;;;27.60;71.70;;;;;;5011493;28;20033;-71
2022/08/17 12:37:26;;;;;;;8.75;2.40;;;27.60;71.70;;;;;;4990023;28;20033;-70
2022/08/17 12:39:59;;;;;;;8.02;2.90;;;27.50;71.60;;;;;;5015633;28;20021;-70
2022/08/17 12:42:31;;;;;;;7.00;2.70;;;27.50;72.00;;;;;;5012705;28;20056;-71
2022/08/17 12:44:57;;;;;;;9.25;2.60;;;27.50;72.80;;;;;;5018289;28;20091;-71
2022/08/17 12:47:24;;;;;;;5.20;2.70;;;27.50;71.50;;;;;;5008751;28;20492;-71
2022/08/17 12:49:52;;;;;;;3.40;2.40;;;27.50;71.90;;;;;;5017226;28;20106;-71
2022/08/17 12:52:24;;;;;;;7.13;2.92;;;27.60;71.40;;;;;;5011285;28;20071;-71
2022/08/17 12:55:21;;;;;;;4.90;2.50;;;27.80;71.20;;;;;;5014821;28;20029;-70
2022/08/17 12:57:53;;;;;;;3.33;2.50;;;27.90;70.60;;;;;;5007246;28;20477;-70
2022/08/17 13:00:31;;;;;;;5.47;2.60;;;28.00;70.60;;;;;;5015806;28;20068;-71
2022/08/17 13:03:15;;;;;;;4.43;2.50;;;28.10;70.70;;;;;;5005019;28;20314;-71
2022/08/17 13:05:55;;;;;;;4.68;2.63;;;28.20;70.30;;;;;;5010753;28;20045;-73
2022/08/17 13:08:41;;;;;;;3.72;2.60;;;28.40;70.00;;;;;;5006881;28;20029;-72
2022/08/17 13:11:13;;;;;;;3.97;2.47;;;28.50;70.80;;;;;;5012568;28;20179;-71
2022/08/17 13:13:49;;;;;;;4.47;2.40;;;28.60;71.60;;;;;;5009419;28;20128;-71
2022/08/17 13:16:19;;;;;;;4.88;2.40;;;28.70;71.00;;;;;;5013330;28;20041;-71
2022/08/17 13:19:08;;;;;;;3.95;2.30;;;28.90;69.50;;;;;;5005821;28;20458;-70
2022/08/17 13:21:36;;;;;;;3.10;2.28;;;29.10;68.80;;;;;;5015926;28;20033;-70
2022/08/17 13:24:06;;;;;;;4.10;2.38;;;29.40;66.90;;;;;;5011918;28;20179;-71
2022/08/17 13:26:45;;;;;;;6.00;2.90;;;29.60;65.10;;;;;;5011005;28;20131;-71
2022/08/17 13:29:22;;;;;;;2.72;2.38;;;29.70;64.90;;;;;;5016353;28;20236;-72
2022/08/17 13:31:50;;;;;;;4.35;2.80;;;29.70;64.10;;;;;;5015582;28;20044;-71
2022/08/17 13:34:39;;;;;;;6.75;4.07;;;29.70;65.10;;;;;;5009736;28;20043;-71
2022/08/17 13:37:20;;;;;;;4.72;3.08;;;29.60;64.30;;;;;;5014234;28;20025;-71
2022/08/17 13:39:45;;;;;;;6.47;3.00;;;29.60;64.50;;;;;;5018007;28;20071;-71
2022/08/17 13:42:39;;;;;;;5.70;2.78;;;29.70;65.10;;;;;;5008208;28;20490;-71
2022/08/17 13:45:27;;;;;;;5.60;2.90;;;30.00;63.00;;;;;;5014279;28;20438;-71
2022/08/17 13:48:07;;;;;;;5.20;2.50;;;30.30;63.00;;;;;;5009571;28;20096;-71
2022/08/17 13:50:51;;;;;;;4.43;2.50;;;30.60;62.50;;;;;;5006819;28;20025;-71
2022/08/17 13:53:23;;;;;;;6.82;3.83;;;30.70;61.60;;;;;;5005041;28;20053;-71